Catàleg de serveis del Meteocat
Campanya meteocatpedra

Dades de l'estació automàtica Camarasa

?
?
Resum diari 21:30 TU
Dades diàries de l'estació meteorològica
Temperatura mitjana 6.2 °C
Temperatura màxima 11.0 °C 15:13 TU
Temperatura mínima 3.2 °C 3:25 TU
Humitat relativa mitjana 86%
Precipitació acumulada 0.0 mm
Ratxa màxima del vent (2 m) 16.6 km/h - 194º 13:54 TU
Irradiació solar global 8.3 MJ/m2

El tram horari està expressat en Temps Universal (TU). Cal sumar una hora en horari d'hivern i dues en horari d'estiu per passar a l'hora oficial.

Camarasa

Metadades estació meteorol´gica
Municipi Camarasa
Comarca Noguera
Altitud 668 m
Data alta 07.03.2006
Estat actual Operativa
Dades de període
Període
TU
TM
°C
TX
°C
TN
°C
HRM
%
PPT
mm
VVM (2 m)
km/h
DVM (2 m)
graus
VVX (2 m)
km/h
RS
W/m2
00:00 - 00:30 4.6 5.1 4.1 84 0.0 1.4 322 4.7 0
00:30 - 01:00 4.5 5.0 4.1 85 0.0 0.4 238 2.9 0
01:00 - 01:30 4.2 4.4 4.0 87 0.0 1.1 228 3.2 0
01:30 - 02:00 4.1 4.7 3.8 87 0.0 1.8 245 3.2 0
02:00 - 02:30 3.4 3.7 3.3 91 0.0 0.7 309 2.9 0
02:30 - 03:00 3.6 3.9 3.2 91 0.0 1.1 258 3.2 0
03:00 - 03:30 3.4 3.6 3.2 93 0.0 1.1 180 4.3 0
03:30 - 04:00 3.4 3.5 3.3 95 0.0 1.4 112 3.6 0
04:00 - 04:30 3.5 3.9 3.4 95 0.0 0.4 131 2.2 0
04:30 - 05:00 3.7 4.0 3.5 93 0.0 0.7 112 3.2 0
05:00 - 05:30 4.0 4.1 3.8 93 0.0 1.8 131 5.0 0
05:30 - 06:00 3.5 3.8 3.4 96 0.0 1.1 20 5.0 0
06:00 - 06:30 3.6 3.7 3.4 95 0.0 0.4 169 1.8 0
06:30 - 07:00 3.7 3.7 3.6 96 0.0 1.8 160 3.6 1
07:00 - 07:30 3.8 3.9 3.7 96 0.0 2.2 105 4.3 10
07:30 - 08:00 4.3 4.4 4.0 93 0.0 2.9 99 7.6 46
08:00 - 08:30 4.8 5.3 4.3 91 0.0 1.4 349 4.0 92
08:30 - 09:00 4.6 4.8 4.4 90 0.0 2.2 334 5.4 54
09:00 - 09:30 4.8 4.8 4.7 89 0.0 4.0 306 7.6 77
09:30 - 10:00 5.4 6.2 4.8 85 0.0 1.8 304 5.0 99
10:00 - 10:30 6.2 6.7 6.0 81 0.0 3.2 298 7.9 182
10:30 - 11:00 7.5 8.1 6.8 73 0.0 3.2 294 6.8 294
11:00 - 11:30 9.0 9.5 8.2 66 0.0 3.2 267 8.3 492
11:30 - 12:00 9.7 10.1 9.3 62 0.0 2.9 248 9.0 495
12:00 - 12:30 10.3 10.7 9.8 66 0.0 3.6 185 9.7 504
12:30 - 13:00 10.4 10.8 10.0 67 0.0 5.8 163 12.2 491
13:00 - 13:30 10.3 10.7 10.0 69 0.0 5.4 166 12.6 451
13:30 - 14:00 10.3 10.6 9.9 69 0.0 6.5 178 16.6 399
14:00 - 14:30 10.0 10.4 9.5 74 0.0 5.0 230 15.5 369
14:30 - 15:00 10.5 10.7 10.0 73 0.0 4.3 255 10.8 261
15:00 - 15:30 10.7 11.0 10.2 72 0.0 4.7 232 10.8 178
15:30 - 16:00 10.1 10.3 9.7 74 0.0 5.8 241 16.2 99
16:00 - 16:30 9.0 9.7 8.0 78 0.0 4.3 208 12.6 31
16:30 - 17:00 7.9 8.0 7.8 83 0.0 3.6 226 7.2 0
17:00 - 17:30 7.5 7.8 7.3 84 0.0 3.6 237 8.3 0
17:30 - 18:00 7.1 7.5 6.8 88 0.0 2.5 211 10.1 0
18:00 - 18:30 6.4 6.8 6.0 92 0.0 3.2 156 5.4 0
18:30 - 19:00 6.6 7.0 6.2 96 0.0 5.0 157 10.4 0
19:00 - 19:30 6.3 7.0 5.5 97 0.0 2.2 262 9.0 0
19:30 - 20:00 4.9 5.4 4.6 97 0.0 1.8 287 5.0 0
20:00 - 20:30 5.3 5.7 4.7 98 0.0 1.8 304 5.8 0
20:30 - 21:00 5.5 5.6 5.3 98 0.0 0.7 339 2.5 0
21:00 - 21:30 5.6 6.0 5.4 91 0.0 1.4 211 4.7 0
21:30 - 22:00 5.1 5.8 4.6 91 0.0 4.0 157 10.8 0

Les dades en taronja només han passat un control de qualitat automàtic. Resta pendent la seva validació definitiva.